Millersport, Ohio
Current Conditions -  °F | °C
As of 4:54 PM on Monday 24 Nov 2014 (Local Time) from KVTA Reporting Station
Overcast Overcast  
Wind Chill: 39°   Ceiling: 3800
Heat Index: 47°   Visibility: 10mi
Dew Point: 36°   Wind: 22mph
Humidity: 66%   Direction: 250°WSW
Pressure: 29.67"   Gusts: 36mph
Location:  39.9°N, 82.53°W
Report Text: KVTA 242154Z AUTO 25019G31KT 10SM OVC038 08/02 A2967 RMK AO2 PK WND 26035/2119 PRESRR SLP047 T00830022
Loading
Personal Weather Stations






























Interactive Weather Map New forecast layout! Learn more

10-Day Weather Forecast

Advertisements
Track Severe Weather on mobile